Terminal Aerodrome Forecast
Issued by NWS

Home | Current Version | Previous Version | Text Only | Print | Product List | Glossary On
Versions: 1 2 3 4 5 6 7 8 9 10 11 12 13 14
264
FTUS43 KEAX 150540
TAFMKC
TAF
KMKC 150540Z 1506/1606 34007KT P6SM SCT050 OVC090
     FM150900 28005KT P6SM SCT030 BKN050
      TEMPO 1509/1511 BKN030
     FM151800 24012G20KT P6SM SCT100
     FM152200 20010KT P6SM SKC=

USA.gov is the U.S. government's official web portal to all federal, state and local government web resources and services.